Time;durP1;ratioP1;P1;durP2;ratioP2;P2;SDS_P1;SDS_P2;PMS_P1;PMS_P2;Temp;Humidity;BMP_temperature;BMP_pressure;BME280_temperature;BME280_humidity;BME280_pressure;Samples;Min_cycle;Max_cycle;Signal;HPM_P1;HPM_P2
2021/08/13 00:00:58;;;;;;;12.63;9.63;;;;;;;;;;4996330;28;20421;-64
2021/08/13 00:03:24;;;;;;;11.13;9.93;;;;;;;;;;4997457;28;20425;-64
2021/08/13 00:05:51;;;;;;;13.27;10.97;;;;;;;;;;4995363;28;20432;-64
2021/08/13 00:08:17;;;;;;;12.57;10.83;;;;;;;;;;4997153;28;20494;-63
2021/08/13 00:10:43;;;;;;;13.03;10.93;;;;;;;;;;4995481;28;20455;-63
2021/08/13 00:13:09;;;;;;;12.43;10.70;;;;;;;;;;4998014;28;20419;-63
2021/08/13 00:15:35;;;;;;;13.57;10.00;;;;;;;;;;4995634;28;20447;-63
2021/08/13 00:18:02;;;;;;;14.23;9.90;;;;;;;;;;4995685;28;20834;-63
2021/08/13 00:20:27;;;;;;;10.80;9.30;;;;;;;;;;4995351;28;20472;-63
2021/08/13 00:22:53;;;;;;;11.37;9.73;;;;;;;;;;4997610;28;20487;-63
2021/08/13 00:25:20;;;;;;;10.77;9.00;;;;;;;;;;4995074;28;20491;-63
2021/08/13 00:27:46;;;;;;;12.23;9.90;;;;;;;;;;4996687;28;20444;-63
2021/08/13 00:30:13;;;;;;;14.30;9.73;;;;;;;;;;4995806;28;20455;-63
2021/08/13 00:32:39;;;;;;;11.90;9.30;;;;;;;;;;4995429;28;20417;-63
2021/08/13 00:35:05;;;;;;;13.23;9.93;;;;;;;;;;4994947;28;20527;-63
2021/08/13 00:37:31;;;;;;;10.37;8.77;;;;;;;;;;4996509;28;20451;-64
2021/08/13 00:39:58;;;;;;;12.97;10.23;;;;;;;;;;4995193;28;20421;-64
2021/08/13 00:42:24;;;;;;;12.30;8.93;;;;;;;;;;4996612;28;20397;-63
2021/08/13 00:44:50;;;;;;;10.40;9.33;;;;;;;;;;4994029;28;20491;-64
2021/08/13 00:47:16;;;;;;;12.60;9.57;;;;;;;;;;4994336;28;20754;-64
2021/08/13 00:49:42;;;;;;;11.10;9.03;;;;;;;;;;4988952;28;20796;-63
2021/08/13 00:52:09;;;;;;;11.63;9.67;;;;;;;;;;4995413;28;20432;-64
2021/08/13 00:54:35;;;;;;;11.17;9.50;;;;;;;;;;4994428;28;20455;-63
2021/08/13 00:57:01;;;;;;;11.73;8.90;;;;;;;;;;4995066;28;20433;-63
2021/08/13 00:59:27;;;;;;;13.80;8.67;;;;;;;;;;4996279;28;20535;-63
2021/08/13 01:01:53;;;;;;;12.17;9.37;;;;;;;;;;4994511;28;20428;-63
2021/08/13 01:04:19;;;;;;;11.77;9.43;;;;;;;;;;4993677;28;20452;-64
2021/08/13 01:06:45;;;;;;;15.03;9.53;;;;;;;;;;4995724;28;20429;-64
2021/08/13 01:09:11;;;;;;;15.93;10.80;;;;;;;;;;5010260;28;20433;-64
2021/08/13 01:11:56;;;;;;;13.00;10.30;;;;;;;;;;4994335;28;20459;-64
2021/08/13 01:14:28;;;;;;;13.20;9.63;;;;;;;;;;4995730;28;20517;-64
2021/08/13 01:16:55;;;;;;;11.30;9.13;;;;;;;;;;4976170;28;21191;-64
2021/08/13 01:19:27;;;;;;;11.27;9.20;;;;;;;;;;4984313;28;20448;-63
2021/08/13 01:22:01;;;;;;;13.83;10.33;;;;;;;;;;4995093;28;20424;-64
2021/08/13 01:24:28;;;;;;;11.33;9.00;;;;;;;;;;4995595;28;20427;-64
2021/08/13 01:27:00;;;;;;;11.60;9.27;;;;;;;;;;4995271;28;20503;-64
2021/08/13 01:29:26;;;;;;;12.40;8.97;;;;;;;;;;4995191;28;20423;-64
2021/08/13 01:31:58;;;;;;;10.13;8.73;;;;;;;;;;4993808;28;20835;-61
2021/08/13 01:34:25;;;;;;;9.97;8.40;;;;;;;;;;5001010;28;20460;-64
2021/08/13 01:36:52;;;;;;;12.63;7.73;;;;;;;;;;4994396;28;20940;-64
2021/08/13 01:39:19;;;;;;;9.50;8.07;;;;;;;;;;4987381;28;20442;-64
2021/08/13 01:41:45;;;;;;;11.60;9.83;;;;;;;;;;4978234;28;20473;-64
2021/08/13 01:44:12;;;;;;;9.90;8.77;;;;;;;;;;4988879;28;20420;-64
2021/08/13 01:46:39;;;;;;;11.83;9.10;;;;;;;;;;4992264;28;20464;-64
2021/08/13 01:49:05;;;;;;;16.30;8.37;;;;;;;;;;4995820;28;20413;-64
2021/08/13 01:51:31;;;;;;;9.90;8.60;;;;;;;;;;4993858;28;20459;-64
2021/08/13 01:53:58;;;;;;;11.20;8.67;;;;;;;;;;4995923;28;20514;-64
2021/08/13 01:56:26;;;;;;;9.30;8.20;;;;;;;;;;4993235;28;20447;-64
2021/08/13 01:58:52;;;;;;;11.70;8.93;;;;;;;;;;4995131;28;20407;-64
2021/08/13 02:01:18;;;;;;;11.30;9.00;;;;;;;;;;4993726;28;20491;-63
2021/08/13 02:03:45;;;;;;;14.57;9.33;;;;;;;;;;4995064;28;20478;-63
2021/08/13 02:06:11;;;;;;;11.07;9.37;;;;;;;;;;4987291;28;20514;-63
2021/08/13 02:08:37;;;;;;;11.07;7.70;;;;;;;;;;4993215;28;20428;-63
2021/08/13 02:11:04;;;;;;;13.57;9.43;;;;;;;;;;4993457;28;20456;-63
2021/08/13 02:13:31;;;;;;;11.63;8.53;;;;;;;;;;4995245;28;20448;-63
2021/08/13 02:16:02;;;;;;;12.20;8.90;;;;;;;;;;5003123;28;20424;-63
2021/08/13 02:18:30;;;;;;;9.63;8.03;;;;;;;;;;4994299;28;20857;-63
2021/08/13 02:20:57;;;;;;;8.93;7.30;;;;;;;;;;4993414;28;20482;-63
2021/08/13 02:23:24;;;;;;;9.73;8.30;;;;;;;;;;4994554;28;20441;-63
2021/08/13 02:25:50;;;;;;;15.10;8.70;;;;;;;;;;4991171;28;20786;-63
2021/08/13 02:28:16;;;;;;;9.83;8.30;;;;;;;;;;4993539;28;20420;-63
2021/08/13 02:30:42;;;;;;;11.57;9.20;;;;;;;;;;4979196;28;20445;-64
2021/08/13 02:33:09;;;;;;;10.83;8.80;;;;;;;;;;4992976;28;20443;-63
2021/08/13 02:35:35;;;;;;;14.13;9.17;;;;;;;;;;4995045;28;20453;-63
2021/08/13 02:38:11;;;;;;;10.30;8.77;;;;;;;;;;4992628;28;20499;-63
2021/08/13 02:40:40;;;;;;;13.83;9.00;;;;;;;;;;4993808;28;20456;-64
2021/08/13 02:43:13;;;;;;;11.50;9.70;;;;;;;;;;4979106;28;20814;-64
2021/08/13 02:45:40;;;;;;;13.47;9.23;;;;;;;;;;4989026;28;20890;-64
2021/08/13 02:48:07;;;;;;;10.73;9.20;;;;;;;;;;4991335;28;20803;-64
2021/08/13 02:50:33;;;;;;;12.10;8.93;;;;;;;;;;4993513;28;20479;-64
2021/08/13 02:53:02;;;;;;;10.80;9.07;;;;;;;;;;4979024;28;20918;-64
2021/08/13 02:55:36;;;;;;;10.40;8.13;;;;;;;;;;4989933;28;20759;-64
2021/08/13 02:58:02;;;;;;;8.83;7.90;;;;;;;;;;4991565;28;20499;-64
2021/08/13 03:00:29;;;;;;;9.97;8.57;;;;;;;;;;4993095;28;20455;-64
2021/08/13 03:02:55;;;;;;;12.03;9.13;;;;;;;;;;4992278;28;20467;-64
2021/08/13 03:05:23;;;;;;;11.57;9.43;;;;;;;;;;4985561;28;20869;-64
2021/08/13 03:07:49;;;;;;;20.80;10.53;;;;;;;;;;4986293;28;20789;-64
2021/08/13 03:10:15;;;;;;;13.20;8.83;;;;;;;;;;4993414;28;20424;-64
2021/08/13 03:12:42;;;;;;;13.23;9.27;;;;;;;;;;4992594;28;20846;-64
2021/08/13 03:15:08;;;;;;;11.93;8.60;;;;;;;;;;4993336;28;20952;-64
2021/08/13 03:17:35;;;;;;;11.20;9.97;;;;;;;;;;4990082;28;20887;-63
2021/08/13 03:20:02;;;;;;;11.90;7.97;;;;;;;;;;4976788;28;20394;-64
2021/08/13 03:22:29;;;;;;;15.13;8.70;;;;;;;;;;4993003;28;20423;-63
2021/08/13 03:24:55;;;;;;;9.80;8.33;;;;;;;;;;4997282;28;20910;-64
2021/08/13 03:27:21;;;;;;;13.77;9.43;;;;;;;;;;4996558;28;20756;-64
2021/08/13 03:29:47;;;;;;;11.83;8.37;;;;;;;;;;4996372;28;20424;-63
2021/08/13 03:32:13;;;;;;;12.17;8.70;;;;;;;;;;5001591;28;20475;-64
2021/08/13 03:34:40;;;;;;;12.07;9.30;;;;;;;;;;4996071;28;20464;-64
2021/08/13 03:37:06;;;;;;;9.90;8.33;;;;;;;;;;4996155;28;20519;-64
2021/08/13 03:39:32;;;;;;;11.07;8.80;;;;;;;;;;4983845;28;20948;-63
2021/08/13 03:41:58;;;;;;;11.53;9.37;;;;;;;;;;4992232;28;20559;-64
2021/08/13 03:44:24;;;;;;;10.27;8.67;;;;;;;;;;4997002;28;20885;-64
2021/08/13 03:46:50;;;;;;;9.37;8.17;;;;;;;;;;4992472;28;21782;-63
2021/08/13 03:49:16;;;;;;;12.00;8.77;;;;;;;;;;4995136;28;20508;-64
2021/08/13 03:51:42;;;;;;;12.10;9.87;;;;;;;;;;4997375;28;20463;-64
2021/08/13 03:54:08;;;;;;;11.07;9.07;;;;;;;;;;4996949;28;20488;-64
2021/08/13 03:56:34;;;;;;;12.03;9.33;;;;;;;;;;4995045;28;20428;-64
2021/08/13 03:59:00;;;;;;;12.50;9.00;;;;;;;;;;4996078;28;20413;-64
2021/08/13 04:01:26;;;;;;;15.50;8.70;;;;;;;;;;4996972;28;20998;-63
2021/08/13 04:03:52;;;;;;;10.73;9.43;;;;;;;;;;4996626;28;20433;-63
2021/08/13 04:06:19;;;;;;;10.43;8.63;;;;;;;;;;4996927;28;20396;-63
2021/08/13 04:08:45;;;;;;;13.87;8.77;;;;;;;;;;4995458;28;20416;-64
2021/08/13 04:11:11;;;;;;;12.60;8.83;;;;;;;;;;4997425;28;20852;-63
2021/08/13 04:13:37;;;;;;;10.90;8.43;;;;;;;;;;4995958;28;20801;-64
2021/08/13 04:16:03;;;;;;;12.83;7.90;;;;;;;;;;4996363;28;20413;-64
2021/08/13 04:18:29;;;;;;;10.07;8.70;;;;;;;;;;4986415;28;20419;-64
2021/08/13 04:20:55;;;;;;;12.20;8.80;;;;;;;;;;4979047;28;20425;-64
2021/08/13 04:23:21;;;;;;;10.73;8.50;;;;;;;;;;4995883;28;20432;-64
2021/08/13 04:25:47;;;;;;;9.37;7.10;;;;;;;;;;4996366;28;20467;-64
2021/08/13 04:28:13;;;;;;;9.40;8.03;;;;;;;;;;4990784;28;20883;-64
2021/08/13 04:30:39;;;;;;;12.17;8.57;;;;;;;;;;4978462;28;20426;-63
2021/08/13 04:33:12;;;;;;;10.57;8.73;;;;;;;;;;4995698;28;20469;-64
2021/08/13 04:35:38;;;;;;;10.50;8.23;;;;;;;;;;4996214;28;20408;-64
2021/08/13 04:38:05;;;;;;;13.90;8.10;;;;;;;;;;4994389;28;20424;-64
2021/08/13 04:40:31;;;;;;;10.10;8.50;;;;;;;;;;4993053;28;20594;-64
2021/08/13 04:42:57;;;;;;;14.83;7.73;;;;;;;;;;4995295;28;20779;-63
2021/08/13 04:45:23;;;;;;;9.43;8.13;;;;;;;;;;5011243;28;20432;-64
2021/08/13 04:47:49;;;;;;;13.17;8.90;;;;;;;;;;4995036;28;20435;-64
2021/08/13 04:50:15;;;;;;;13.93;8.30;;;;;;;;;;4995837;28;20447;-64
2021/08/13 04:52:42;;;;;;;8.73;7.10;;;;;;;;;;5007309;28;20431;-64
2021/08/13 04:55:09;;;;;;;13.60;8.43;;;;;;;;;;5015199;28;20452;-64
2021/08/13 04:57:35;;;;;;;11.77;8.80;;;;;;;;;;5006754;28;20490;-64
2021/08/13 05:00:01;;;;;;;11.90;9.03;;;;;;;;;;4993516;28;20424;-63
2021/08/13 05:02:27;;;;;;;14.43;8.57;;;;;;;;;;4992877;28;20444;-63
2021/08/13 05:05:00;;;;;;;10.03;7.43;;;;;;;;;;4988098;28;20504;-64
2021/08/13 05:07:26;;;;;;;10.70;8.33;;;;;;;;;;4994602;28;20486;-64
2021/08/13 05:09:52;;;;;;;9.37;7.50;;;;;;;;;;4996340;28;20422;-64
2021/08/13 05:12:18;;;;;;;13.57;9.83;;;;;;;;;;4997840;28;20432;-64
2021/08/13 05:14:44;;;;;;;9.43;8.03;;;;;;;;;;5015324;28;20444;-64
2021/08/13 05:17:10;;;;;;;9.90;7.40;;;;;;;;;;4996925;28;20798;-64
2021/08/13 05:19:36;;;;;;;12.83;7.63;;;;;;;;;;4995664;28;20423;-63
2021/08/13 05:22:02;;;;;;;9.47;8.20;;;;;;;;;;4995343;28;20455;-63
2021/08/13 05:24:28;;;;;;;10.20;7.90;;;;;;;;;;4996197;28;20492;-63
2021/08/13 05:26:54;;;;;;;10.67;7.60;;;;;;;;;;4993562;28;20467;-66
2021/08/13 05:29:20;;;;;;;9.23;7.10;;;;;;;;;;4996944;28;20436;-64
2021/08/13 05:31:46;;;;;;;8.30;7.30;;;;;;;;;;4989784;28;20452;-61
2021/08/13 05:34:12;;;;;;;15.63;8.40;;;;;;;;;;4977693;28;20807;-61
2021/08/13 05:36:38;;;;;;;8.50;6.20;;;;;;;;;;4992301;28;20426;-61
2021/08/13 05:39:04;;;;;;;9.10;6.47;;;;;;;;;;4990116;28;20408;-62
2021/08/13 05:41:30;;;;;;;8.57;7.20;;;;;;;;;;4994059;28;20467;-61
2021/08/13 05:43:56;;;;;;;8.83;7.03;;;;;;;;;;4995488;28;20403;-62
2021/08/13 05:46:22;;;;;;;9.30;7.17;;;;;;;;;;4994163;28;20495;-64
2021/08/13 05:48:48;;;;;;;9.03;6.83;;;;;;;;;;4993573;28;20841;-65
2021/08/13 05:51:14;;;;;;;10.93;6.90;;;;;;;;;;4994015;28;20526;-66
2021/08/13 05:53:40;;;;;;;9.57;7.07;;;;;;;;;;4994741;28;20827;-66
2021/08/13 05:56:06;;;;;;;12.43;6.43;;;;;;;;;;4994269;28;20424;-62
2021/08/13 05:58:32;;;;;;;7.47;6.67;;;;;;;;;;4985886;28;20464;-62
2021/08/13 06:00:58;;;;;;;9.47;7.50;;;;;;;;;;4993886;28;20502;-63
2021/08/13 06:03:24;;;;;;;7.73;5.90;;;;;;;;;;4989413;28;20823;-63
2021/08/13 06:05:50;;;;;;;10.13;6.43;;;;;;;;;;4993593;28;20456;-61
2021/08/13 06:08:16;;;;;;;9.40;6.53;;;;;;;;;;4994584;28;20447;-62
2021/08/13 06:10:42;;;;;;;8.53;5.43;;;;;;;;;;4993248;28;20553;-65
2021/08/13 06:13:08;;;;;;;7.03;4.40;;;;;;;;;;4994461;28;20428;-62
2021/08/13 06:15:34;;;;;;;6.50;4.67;;;;;;;;;;4992095;28;20786;-63
2021/08/13 06:18:00;;;;;;;7.00;4.70;;;;;;;;;;4994289;28;20404;-64
2021/08/13 06:20:27;;;;;;;9.20;4.20;;;;;;;;;;4992073;28;20447;-61
2021/08/13 06:22:53;;;;;;;4.97;3.73;;;;;;;;;;4993985;28;20424;-62
2021/08/13 06:25:19;;;;;;;6.43;4.77;;;;;;;;;;4994228;28;20460;-62
2021/08/13 06:27:46;;;;;;;4.83;3.80;;;;;;;;;;4989936;28;20527;-62
2021/08/13 06:30:13;;;;;;;9.60;5.03;;;;;;;;;;4983253;28;20445;-61
2021/08/13 06:32:39;;;;;;;11.77;6.00;;;;;;;;;;4989006;28;20435;-61
2021/08/13 06:35:06;;;;;;;13.70;6.73;;;;;;;;;;4985258;28;20467;-56
2021/08/13 06:37:32;;;;;;;9.67;5.53;;;;;;;;;;4980258;28;20516;-61
2021/08/13 06:39:58;;;;;;;9.93;6.23;;;;;;;;;;4983396;28;20424;-62
2021/08/13 06:42:24;;;;;;;9.10;5.40;;;;;;;;;;4994697;28;20427;-62
2021/08/13 06:44:50;;;;;;;9.10;5.03;;;;;;;;;;4977110;28;20833;-62
2021/08/13 06:47:16;;;;;;;10.03;5.70;;;;;;;;;;4978338;28;20492;-62
2021/08/13 06:49:42;;;;;;;10.40;5.93;;;;;;;;;;4983934;28;20865;-62
2021/08/13 06:52:10;;;;;;;13.80;5.53;;;;;;;;;;4992201;28;20447;-64
2021/08/13 06:54:37;;;;;;;12.43;6.50;;;;;;;;;;4990663;28;20464;-63
2021/08/13 06:57:03;;;;;;;8.97;6.07;;;;;;;;;;4991069;28;20421;-61
2021/08/13 06:59:29;;;;;;;6.83;5.03;;;;;;;;;;4988554;28;20865;-65
2021/08/13 07:01:55;;;;;;;9.43;5.80;;;;;;;;;;4990238;28;20444;-63
2021/08/13 07:04:21;;;;;;;13.83;7.40;;;;;;;;;;4993056;28;20435;-65
2021/08/13 07:06:47;;;;;;;12.73;6.77;;;;;;;;;;4995796;28;20432;-71
2021/08/13 07:09:13;;;;;;;10.00;5.93;;;;;;;;;;5011462;28;20427;-71
2021/08/13 07:11:39;;;;;;;8.93;5.37;;;;;;;;;;5009190;28;20459;-73
2021/08/13 07:14:06;;;;;;;8.37;5.77;;;;;;;;;;4993631;28;20467;-69
2021/08/13 07:16:32;;;;;;;7.07;5.80;;;;;;;;;;4995210;28;20419;-67
2021/08/13 07:18:58;;;;;;;11.00;6.47;;;;;;;;;;4995714;28;20483;-68
2021/08/13 07:21:24;;;;;;;15.83;7.53;;;;;;;;;;4995284;28;20499;-68
2021/08/13 07:23:50;;;;;;;13.37;6.97;;;;;;;;;;4994523;28;20424;-69
2021/08/13 07:26:16;;;;;;;10.70;6.67;;;;;;;;;;4998807;28;20486;-68
2021/08/13 07:28:42;;;;;;;9.63;5.73;;;;;;;;;;4999813;28;20415;-69
2021/08/13 07:31:08;;;;;;;10.87;6.00;;;;;;;;;;4995700;28;20459;-68
2021/08/13 07:33:34;;;;;;;9.20;5.87;;;;;;;;;;4981211;28;20456;-69
2021/08/13 07:36:00;;;;;;;9.77;5.67;;;;;;;;;;4986594;28;20529;-68
2021/08/13 07:38:26;;;;;;;8.63;6.40;;;;;;;;;;5004453;28;20409;-69
2021/08/13 07:40:52;;;;;;;9.33;6.70;;;;;;;;;;5015385;28;20504;-69
2021/08/13 07:43:18;;;;;;;7.53;5.40;;;;;;;;;;4997106;28;20454;-69
2021/08/13 07:45:44;;;;;;;11.37;6.17;;;;;;;;;;4997222;28;20827;-69
2021/08/13 07:48:10;;;;;;;8.07;6.00;;;;;;;;;;4997015;28;20795;-69
2021/08/13 07:50:36;;;;;;;9.53;6.63;;;;;;;;;;4997627;28;20432;-68
2021/08/13 07:53:02;;;;;;;7.90;5.03;;;;;;;;;;4995786;28;20918;-68
2021/08/13 07:55:28;;;;;;;6.90;6.10;;;;;;;;;;4997201;28;20687;-68
2021/08/13 07:57:55;;;;;;;8.03;5.70;;;;;;;;;;4997040;28;20431;-68
2021/08/13 08:00:21;;;;;;;9.20;6.07;;;;;;;;;;4997342;28;20455;-68
2021/08/13 08:02:47;;;;;;;9.30;5.53;;;;;;;;;;4994532;28;20902;-68
2021/08/13 08:05:13;;;;;;;8.70;5.50;;;;;;;;;;4979701;28;20439;-67
2021/08/13 08:07:39;;;;;;;9.60;6.07;;;;;;;;;;4998286;28;20432;-68
2021/08/13 08:10:06;;;;;;;8.63;5.67;;;;;;;;;;4998379;28;20458;-68
2021/08/13 08:12:32;;;;;;;7.13;5.40;;;;;;;;;;4991894;28;20428;-67
2021/08/13 08:14:58;;;;;;;7.60;5.20;;;;;;;;;;4997419;28;20460;-68
2021/08/13 08:17:24;;;;;;;9.83;5.60;;;;;;;;;;4984773;28;20478;-67
2021/08/13 08:19:50;;;;;;;6.70;5.83;;;;;;;;;;4991890;28;20951;-68
2021/08/13 08:22:16;;;;;;;6.60;5.23;;;;;;;;;;4995234;28;20482;-68
2021/08/13 08:24:42;;;;;;;9.50;5.63;;;;;;;;;;4995010;28;20809;-69
2021/08/13 08:27:08;;;;;;;12.40;6.13;;;;;;;;;;4995377;28;20477;-68
2021/08/13 08:29:34;;;;;;;6.63;5.57;;;;;;;;;;4994529;28;20528;-69
2021/08/13 08:32:00;;;;;;;7.20;5.43;;;;;;;;;;4994789;28;20451;-68
2021/08/13 08:34:26;;;;;;;8.10;5.90;;;;;;;;;;4995034;28;20460;-69
2021/08/13 08:36:52;;;;;;;8.23;5.63;;;;;;;;;;4993864;28;20432;-69
2021/08/13 08:39:18;;;;;;;8.33;5.27;;;;;;;;;;5012770;28;20423;-69
2021/08/13 08:41:44;;;;;;;7.40;6.60;;;;;;;;;;5009583;28;20910;-69
2021/08/13 08:44:11;;;;;;;11.20;5.17;;;;;;;;;;4987386;28;20775;-69
2021/08/13 08:46:37;;;;;;;9.37;6.00;;;;;;;;;;4979302;28;20471;-68
2021/08/13 08:49:04;;;;;;;6.97;5.27;;;;;;;;;;4994016;28;20547;-69
2021/08/13 08:51:30;;;;;;;9.47;6.20;;;;;;;;;;4994532;28;20431;-71
2021/08/13 08:53:57;;;;;;;7.00;4.47;;;;;;;;;;4992259;28;20466;-69
2021/08/13 08:56:24;;;;;;;8.37;5.40;;;;;;;;;;4976350;28;20489;-71
2021/08/13 08:58:51;;;;;;;7.70;4.83;;;;;;;;;;4996006;28;20408;-72
2021/08/13 09:01:17;;;;;;;7.37;4.67;;;;;;;;;;4994310;28;20424;-73
2021/08/13 09:03:44;;;;;;;6.60;4.43;;;;;;;;;;4988041;28;20431;-70
2021/08/13 09:06:10;;;;;;;5.40;4.90;;;;;;;;;;4986297;28;20460;-71
2021/08/13 09:08:37;;;;;;;7.60;5.10;;;;;;;;;;5011118;28;20966;-71
2021/08/13 09:11:04;;;;;;;7.67;4.60;;;;;;;;;;5001074;28;20490;-70
2021/08/13 09:13:30;;;;;;;7.30;4.90;;;;;;;;;;4990579;28;20563;-72
2021/08/13 09:16:08;;;;;;;8.43;4.70;;;;;;;;;;4976329;28;20865;-71
2021/08/13 09:18:34;;;;;;;5.43;4.53;;;;;;;;;;4993329;28;20804;-70
2021/08/13 09:21:01;;;;;;;6.47;4.90;;;;;;;;;;4983358;28;20437;-70
2021/08/13 09:23:30;;;;;;;5.90;5.30;;;;;;;;;;4991221;28;20428;-70
2021/08/13 09:25:57;;;;;;;7.27;4.40;;;;;;;;;;4986417;28;20413;-72
2021/08/13 09:28:38;;;;;;;6.27;4.27;;;;;;;;;;4998122;28;20454;-71
2021/08/13 09:31:15;;;;;;;6.57;4.20;;;;;;;;;;4991605;28;20435;-70
2021/08/13 09:33:41;;;;;;;6.77;4.10;;;;;;;;;;4991040;28;20460;-71
2021/08/13 09:36:08;;;;;;;6.73;5.10;;;;;;;;;;4985555;28;20408;-69
2021/08/13 09:38:34;;;;;;;5.27;4.53;;;;;;;;;;4992084;28;20977;-70
2021/08/13 09:41:13;;;;;;;5.53;4.00;;;;;;;;;;4983969;28;20964;-71
2021/08/13 09:43:56;;;;;;;7.73;3.90;;;;;;;;;;4990685;28;20836;-71
2021/08/13 09:46:22;;;;;;;8.03;4.60;;;;;;;;;;4986655;28;20431;-71
2021/08/13 09:48:48;;;;;;;5.90;3.93;;;;;;;;;;4992977;28;20424;-70
2021/08/13 09:51:33;;;;;;;5.60;4.20;;;;;;;;;;4982345;28;20448;-69
2021/08/13 09:54:00;;;;;;;6.43;3.63;;;;;;;;;;4986452;28;20459;-70
2021/08/13 09:56:27;;;;;;;6.90;3.80;;;;;;;;;;4985821;28;20432;-70
2021/08/13 09:58:53;;;;;;;6.20;3.50;;;;;;;;;;4990572;28;20442;-70
2021/08/13 10:01:35;;;;;;;7.57;5.63;;;;;;;;;;4990525;28;20531;-70
2021/08/13 10:04:01;;;;;;;7.23;4.43;;;;;;;;;;4992391;28;20424;-70
2021/08/13 10:06:31;;;;;;;10.93;4.30;;;;;;;;;;4992783;28;20486;-70
2021/08/13 10:08:57;;;;;;;5.43;4.20;;;;;;;;;;4997842;28;20478;-70
2021/08/13 10:11:23;;;;;;;5.43;4.03;;;;;;;;;;4989151;28;20506;-71
2021/08/13 10:13:50;;;;;;;7.27;4.40;;;;;;;;;;4987544;28;20575;-70
2021/08/13 10:16:22;;;;;;;7.50;4.43;;;;;;;;;;4993292;28;20424;-69
2021/08/13 10:18:50;;;;;;;6.00;4.20;;;;;;;;;;4995528;28;20786;-69
2021/08/13 10:21:16;;;;;;;6.00;3.60;;;;;;;;;;4979309;28;20445;-70
2021/08/13 10:23:44;;;;;;;4.83;3.20;;;;;;;;;;4991469;28;20428;-70
2021/08/13 10:26:10;;;;;;;5.63;3.70;;;;;;;;;;4992836;28;20515;-70
2021/08/13 10:28:36;;;;;;;5.70;3.63;;;;;;;;;;4994139;28;20432;-70
2021/08/13 10:31:03;;;;;;;7.33;4.17;;;;;;;;;;4983024;28;20459;-70
2021/08/13 10:33:29;;;;;;;5.97;3.80;;;;;;;;;;4986133;28;20425;-72
2021/08/13 10:35:58;;;;;;;6.07;3.77;;;;;;;;;;4990244;28;20503;-71
2021/08/13 10:38:25;;;;;;;7.50;4.00;;;;;;;;;;4990370;28;20901;-70
2021/08/13 10:40:52;;;;;;;9.40;3.40;;;;;;;;;;4993317;28;20456;-70
2021/08/13 10:43:24;;;;;;;5.17;4.17;;;;;;;;;;4990930;28;20431;-70
2021/08/13 10:45:52;;;;;;;4.93;3.40;;;;;;;;;;4989075;28;20426;-71
2021/08/13 10:48:23;;;;;;;6.13;3.93;;;;;;;;;;4993150;28;21008;-71
2021/08/13 10:50:55;;;;;;;5.40;3.03;;;;;;;;;;4987395;28;20995;-70
2021/08/13 10:53:31;;;;;;;5.47;3.20;;;;;;;;;;4986445;28;20421;-70
2021/08/13 10:55:58;;;;;;;5.60;4.40;;;;;;;;;;4984503;28;20456;-70
2021/08/13 10:58:37;;;;;;;5.23;3.53;;;;;;;;;;4985421;28;20425;-70
2021/08/13 11:01:05;;;;;;;5.93;4.30;;;;;;;;;;4988264;28;20957;-70
2021/08/13 11:03:31;;;;;;;6.30;3.83;;;;;;;;;;4987810;28;20432;-73
2021/08/13 11:05:58;;;;;;;4.63;3.70;;;;;;;;;;4985474;28;20512;-68
2021/08/13 11:08:49;;;;;;;7.77;3.83;;;;;;;;;;4986707;28;20428;-68
2021/08/13 11:11:15;;;;;;;7.33;4.37;;;;;;;;;;4990633;28;20460;-69
2021/08/13 11:13:41;;;;;;;8.20;4.20;;;;;;;;;;4989797;28;20562;-69
2021/08/13 11:16:25;;;;;;;5.40;3.70;;;;;;;;;;4990613;28;20443;-69
2021/08/13 11:18:56;;;;;;;7.33;4.17;;;;;;;;;;4987623;28;21033;-69
2021/08/13 11:21:51;;;;;;;7.07;4.07;;;;;;;;;;4992132;28;20564;-69
2021/08/13 11:24:25;;;;;;;9.23;4.50;;;;;;;;;;4980777;28;20429;-70
2021/08/13 11:26:51;;;;;;;6.27;3.30;;;;;;;;;;4998510;28;20431;-69
2021/08/13 11:31:55;;;;;;;7.80;4.13;;;;;;;;;;4991548;28;20436;-69
2021/08/13 11:34:40;;;;;;;7.37;3.73;;;;;;;;;;4989127;28;20459;-72
2021/08/13 11:37:06;;;;;;;10.17;3.97;;;;;;;;;;4985945;28;20424;-68
2021/08/13 11:39:39;;;;;;;6.83;3.33;;;;;;;;;;4982742;28;20401;-71
2021/08/13 11:42:06;;;;;;;4.57;3.33;;;;;;;;;;4976551;28;20445;-69
2021/08/13 11:44:33;;;;;;;5.73;3.93;;;;;;;;;;4987151;28;20420;-68
2021/08/13 11:46:59;;;;;;;8.80;2.87;;;;;;;;;;4986724;28;20511;-69
2021/08/13 11:49:25;;;;;;;8.00;4.10;;;;;;;;;;4987294;28;20444;-68
2021/08/13 11:51:52;;;;;;;7.40;2.93;;;;;;;;;;4984648;28;20471;-71
2021/08/13 11:54:28;;;;;;;5.50;2.30;;;;;;;;;;4998235;28;20478;-70
2021/08/13 11:56:55;;;;;;;5.70;3.00;;;;;;;;;;4984781;28;20453;-72
2021/08/13 11:59:21;;;;;;;4.67;3.47;;;;;;;;;;4979893;28;20433;-69
2021/08/13 12:01:51;;;;;;;8.07;3.67;;;;;;;;;;4992504;28;20514;-74
2021/08/13 12:04:18;;;;;;;5.37;3.10;;;;;;;;;;4994767;28;20432;-69
2021/08/13 12:07:02;;;;;;;7.97;3.20;;;;;;;;;;4983612;28;20507;-70
2021/08/13 12:09:29;;;;;;;6.70;3.53;;;;;;;;;;4990913;28;20423;-70
2021/08/13 12:11:55;;;;;;;6.77;4.00;;;;;;;;;;4993025;28;20448;-70
2021/08/13 12:14:21;;;;;;;5.67;3.10;;;;;;;;;;4995383;28;20782;-70
2021/08/13 12:16:52;;;;;;;5.27;3.00;;;;;;;;;;4993704;28;20498;-70
2021/08/13 12:19:18;;;;;;;5.37;2.87;;;;;;;;;;4989307;28;20453;-70
2021/08/13 12:21:54;;;;;;;6.77;3.23;;;;;;;;;;4990227;28;20476;-70
2021/08/13 12:24:33;;;;;;;4.07;2.67;;;;;;;;;;4993064;28;20763;-70
2021/08/13 12:27:00;;;;;;;6.07;3.03;;;;;;;;;;4984018;28;20558;-70
2021/08/13 12:29:27;;;;;;;7.33;4.40;;;;;;;;;;4992078;28;20431;-70
2021/08/13 12:31:54;;;;;;;4.87;3.17;;;;;;;;;;4987119;28;21259;-70
2021/08/13 12:34:21;;;;;;;6.67;3.17;;;;;;;;;;4993472;28;21231;-70
2021/08/13 12:36:47;;;;;;;6.40;2.60;;;;;;;;;;4992997;28;20938;-71
2021/08/13 12:39:21;;;;;;;6.53;2.57;;;;;;;;;;4992402;28;20428;-70
2021/08/13 12:41:47;;;;;;;3.87;2.03;;;;;;;;;;4994342;28;20495;-69
2021/08/13 12:44:13;;;;;;;6.17;2.57;;;;;;;;;;4994952;28;20449;-69
2021/08/13 12:46:39;;;;;;;7.23;2.40;;;;;;;;;;4987753;28;20509;-72
2021/08/13 12:49:06;;;;;;;9.00;2.90;;;;;;;;;;4982261;28;20752;-69
2021/08/13 12:51:32;;;;;;;5.70;2.10;;;;;;;;;;4993468;28;20451;-71
2021/08/13 12:53:58;;;;;;;6.70;2.50;;;;;;;;;;4991819;28;20483;-69
2021/08/13 12:56:24;;;;;;;9.10;2.57;;;;;;;;;;4981612;28;20507;-70
2021/08/13 12:58:51;;;;;;;10.27;2.47;;;;;;;;;;4981182;28;20433;-68
2021/08/13 13:01:24;;;;;;;9.43;2.37;;;;;;;;;;4985488;28;20487;-68
2021/08/13 13:04:10;;;;;;;5.10;3.60;;;;;;;;;;4990228;28;20436;-70
2021/08/13 13:06:36;;;;;;;4.23;2.20;;;;;;;;;;4989896;28;20431;-70
2021/08/13 13:09:02;;;;;;;5.37;2.23;;;;;;;;;;4992638;28;20460;-69
2021/08/13 13:11:29;;;;;;;8.67;2.97;;;;;;;;;;4993663;28;20474;-69
2021/08/13 13:13:56;;;;;;;6.83;2.60;;;;;;;;;;4982167;28;20509;-69
2021/08/13 13:16:23;;;;;;;5.90;2.77;;;;;;;;;;4987943;28;21000;-71
2021/08/13 13:18:49;;;;;;;7.00;2.47;;;;;;;;;;4988829;28;20444;-70
2021/08/13 13:21:28;;;;;;;6.23;3.00;;;;;;;;;;4989215;28;20440;-69
2021/08/13 13:23:57;;;;;;;7.53;2.60;;;;;;;;;;4992537;28;20436;-69
2021/08/13 13:26:23;;;;;;;5.43;3.03;;;;;;;;;;4992964;28;20443;-70
2021/08/13 13:28:50;;;;;;;7.60;3.30;;;;;;;;;;4990308;28;20431;-69
2021/08/13 13:31:17;;;;;;;9.47;2.73;;;;;;;;;;4987484;28;20451;-70
2021/08/13 13:33:43;;;;;;;5.23;2.40;;;;;;;;;;4991841;28;20458;-68
2021/08/13 13:36:09;;;;;;;7.40;2.80;;;;;;;;;;4989915;28;20456;-68
2021/08/13 13:38:36;;;;;;;7.60;2.93;;;;;;;;;;4992931;28;20436;-70
2021/08/13 13:41:03;;;;;;;13.07;4.80;;;;;;;;;;4992388;28;20459;-70
2021/08/13 13:43:29;;;;;;;8.20;2.63;;;;;;;;;;4981816;28;20421;-69
2021/08/13 13:45:55;;;;;;;9.47;3.10;;;;;;;;;;4992438;28;20785;-69
2021/08/13 13:48:22;;;;;;;8.70;3.20;;;;;;;;;;4991152;28;20424;-70
2021/08/13 13:50:48;;;;;;;9.00;3.50;;;;;;;;;;4993281;28;20479;-69
2021/08/13 13:53:15;;;;;;;13.00;3.53;;;;;;;;;;4984492;28;20490;-69
2021/08/13 13:55:41;;;;;;;7.50;3.90;;;;;;;;;;4986684;28;20464;-69
2021/08/13 13:58:07;;;;;;;8.70;3.10;;;;;;;;;;4982949;28;20777;-70
2021/08/13 14:00:33;;;;;;;20.43;3.90;;;;;;;;;;4991544;28;20444;-71
2021/08/13 14:02:59;;;;;;;14.37;3.57;;;;;;;;;;4985684;28;20986;-72
2021/08/13 14:05:25;;;;;;;6.47;2.80;;;;;;;;;;4989889;28;20786;-69
2021/08/13 14:07:52;;;;;;;8.53;3.63;;;;;;;;;;4989491;28;20475;-69
2021/08/13 14:10:20;;;;;;;9.07;3.30;;;;;;;;;;4989403;28;20539;-69
2021/08/13 14:12:47;;;;;;;8.00;3.30;;;;;;;;;;4985299;28;20905;-70
2021/08/13 14:15:15;;;;;;;8.00;3.40;;;;;;;;;;4994046;28;20461;-68
2021/08/13 14:17:41;;;;;;;9.00;3.20;;;;;;;;;;4986937;28;20510;-69
2021/08/13 14:20:08;;;;;;;12.33;4.33;;;;;;;;;;4990278;28;20435;-69
2021/08/13 14:22:35;;;;;;;10.63;3.90;;;;;;;;;;4988287;28;20421;-69
2021/08/13 14:25:01;;;;;;;7.93;2.73;;;;;;;;;;4985506;28;20468;-69
2021/08/13 14:27:27;;;;;;;7.40;3.07;;;;;;;;;;4985941;28;20847;-69
2021/08/13 14:29:53;;;;;;;11.23;3.47;;;;;;;;;;4990515;28;20486;-69
2021/08/13 14:32:19;;;;;;;12.40;3.10;;;;;;;;;;4982244;28;20534;-69
2021/08/13 14:34:45;;;;;;;5.30;3.00;;;;;;;;;;4991405;28;20989;-69
2021/08/13 14:37:11;;;;;;;9.20;3.50;;;;;;;;;;5013105;28;20602;-69
2021/08/13 14:39:37;;;;;;;6.30;2.97;;;;;;;;;;4990882;28;20535;-68
2021/08/13 14:42:03;;;;;;;8.57;3.10;;;;;;;;;;4987259;28;20863;-68